createdAt,value
2018-12-13T00:00:37.336Z,21.87
2018-12-13T00:03:06.376Z,19.33
2018-12-13T00:05:35.262Z,19.53
2018-12-13T00:08:04.163Z,17.83
2018-12-13T00:10:33.079Z,18.07
2018-12-13T00:13:01.979Z,18.30
2018-12-13T00:15:33.424Z,18.43
2018-12-13T00:18:02.321Z,18.90
2018-12-13T00:20:31.253Z,19.60
2018-12-13T00:23:00.148Z,18.40
2018-12-13T00:25:29.039Z,19.37
2018-12-13T00:27:59.668Z,19.23
2018-12-13T00:30:28.488Z,19.00
2018-12-13T00:32:57.356Z,20.27
2018-12-13T00:35:26.260Z,19.13
2018-12-13T00:37:55.244Z,18.70
2018-12-13T00:40:24.154Z,19.70
2018-12-13T00:42:53.056Z,19.37
2018-12-13T00:45:21.985Z,18.13
2018-12-13T00:47:50.880Z,20.00
2018-12-13T00:50:19.800Z,19.03
2018-12-13T00:52:48.742Z,18.27
2018-12-13T00:55:17.660Z,19.73
2018-12-13T00:57:46.549Z,18.53
2018-12-13T01:00:15.470Z,20.77
2018-12-13T01:02:44.361Z,20.33
2018-12-13T01:05:13.273Z,20.17
2018-12-13T01:07:42.226Z,19.97
2018-12-13T01:10:11.108Z,26.30
2018-12-13T01:12:40.054Z,20.33
2018-12-13T01:15:08.988Z,21.00
2018-12-13T01:17:37.938Z,25.77
2018-12-13T01:20:06.907Z,20.10
2018-12-13T01:22:35.810Z,20.17
2018-12-13T01:25:04.757Z,19.40
2018-12-13T01:27:33.647Z,17.83
2018-12-13T01:30:02.538Z,18.60
2018-12-13T01:32:31.450Z,19.73
2018-12-13T01:35:00.349Z,19.60
2018-12-13T01:37:29.232Z,20.30
2018-12-13T01:39:58.152Z,18.43
2018-12-13T01:42:27.071Z,20.00
2018-12-13T01:44:55.987Z,19.50
2018-12-13T01:47:24.882Z,18.70
2018-12-13T01:49:53.815Z,18.20
2018-12-13T01:52:22.692Z,20.00
2018-12-13T01:54:51.599Z,19.83
2018-12-13T01:57:20.489Z,19.90
2018-12-13T01:59:49.461Z,16.83
2018-12-13T02:02:18.290Z,17.03
2018-12-13T02:04:47.228Z,17.67
2018-12-13T02:07:16.134Z,22.47
2018-12-13T02:09:45.044Z,18.00
2018-12-13T02:12:13.921Z,17.60
2018-12-13T02:14:42.846Z,17.47
2018-12-13T02:17:11.749Z,17.80
2018-12-13T02:19:40.638Z,16.50
2018-12-13T02:22:09.579Z,16.50
2018-12-13T02:24:38.463Z,23.83
2018-12-13T02:27:07.426Z,24.18
2018-12-13T02:29:36.332Z,18.40
2018-12-13T02:32:05.238Z,18.33
2018-12-13T02:34:34.149Z,17.90
2018-12-13T02:37:06.238Z,17.53
2018-12-13T02:39:31.955Z,18.07
2018-12-13T02:42:00.944Z,18.33
2018-12-13T02:44:29.796Z,16.40
2018-12-13T02:46:58.709Z,18.80
2018-12-13T02:49:27.626Z,18.50
2018-12-13T02:51:56.584Z,23.30
2018-12-13T02:54:25.464Z,25.30
2018-12-13T02:56:54.388Z,20.17
2018-12-13T02:59:23.315Z,19.73
2018-12-13T03:01:52.294Z,19.40
2018-12-13T03:04:21.150Z,19.80
2018-12-13T03:06:50.085Z,19.37
2018-12-13T03:09:19.008Z,17.93
2018-12-13T03:11:47.902Z,19.33
2018-12-13T03:14:16.786Z,19.17
2018-12-13T03:16:45.715Z,19.67
2018-12-13T03:19:14.589Z,19.93
2018-12-13T03:21:43.522Z,20.30
2018-12-13T03:24:12.432Z,20.77
2018-12-13T03:26:41.440Z,27.67
2018-12-13T03:29:10.267Z,21.53
2018-12-13T03:31:39.156Z,19.87
2018-12-13T03:34:08.086Z,21.37
2018-12-13T03:36:36.985Z,19.40
2018-12-13T03:39:07.792Z,21.27
2018-12-13T03:41:36.696Z,21.90
2018-12-13T03:44:05.607Z,20.73
2018-12-13T03:46:34.521Z,28.92
2018-12-13T03:49:03.457Z,22.47
2018-12-13T03:51:32.379Z,21.60
2018-12-13T03:54:01.311Z,20.60
2018-12-13T03:56:30.183Z,22.27
2018-12-13T03:58:59.112Z,21.40
2018-12-13T04:01:27.988Z,20.40
2018-12-13T04:03:56.920Z,20.40
2018-12-13T04:06:25.828Z,21.07
2018-12-13T04:08:54.763Z,26.60
2018-12-13T04:11:23.663Z,21.93
2018-12-13T04:13:52.576Z,20.23
2018-12-13T04:16:21.499Z,20.27
2018-12-13T04:18:50.443Z,21.43
2018-12-13T04:21:19.316Z,20.60
2018-12-13T04:23:48.256Z,20.57
2018-12-13T04:26:17.147Z,20.53
2018-12-13T04:28:46.077Z,21.77
2018-12-13T04:31:14.965Z,19.97
2018-12-13T04:33:43.902Z,20.37
2018-12-13T04:36:13.547Z,21.60
2018-12-13T04:38:41.742Z,20.33
2018-12-13T04:41:10.604Z,21.27
2018-12-13T04:43:39.522Z,20.03
2018-12-13T04:46:08.543Z,20.80
2018-12-13T04:48:37.459Z,20.43
2018-12-13T04:51:06.394Z,21.20
2018-12-13T04:53:35.409Z,21.57
2018-12-13T04:56:04.363Z,20.70
2018-12-13T04:58:33.257Z,20.50
2018-12-13T05:01:02.169Z,20.60
2018-12-13T05:03:31.037Z,20.27
2018-12-13T05:05:59.942Z,21.33
2018-12-13T05:08:28.847Z,21.40
2018-12-13T05:10:57.772Z,21.40
2018-12-13T05:13:26.677Z,21.10
2018-12-13T05:15:55.594Z,28.52
2018-12-13T05:18:24.482Z,23.10
2018-12-13T05:20:53.375Z,21.37
2018-12-13T05:23:22.284Z,20.37
2018-12-13T05:25:51.198Z,20.73
2018-12-13T05:28:20.098Z,21.43
2018-12-13T05:30:48.997Z,19.20
2018-12-13T05:33:17.880Z,20.07
2018-12-13T05:35:46.801Z,19.80
2018-12-13T05:38:15.699Z,28.67
2018-12-13T05:40:44.609Z,22.03
2018-12-13T05:43:13.519Z,20.40
2018-12-13T05:45:42.414Z,21.43
2018-12-13T05:48:11.350Z,20.43
2018-12-13T05:50:40.210Z,21.33
2018-12-13T05:53:09.096Z,20.10
2018-12-13T05:55:38.038Z,21.73
2018-12-13T05:58:06.957Z,19.53
2018-12-13T06:00:35.825Z,18.27
2018-12-13T06:03:04.776Z,20.47
2018-12-13T06:05:33.710Z,20.43
2018-12-13T06:08:02.625Z,19.87
2018-12-13T06:10:31.555Z,20.50
2018-12-13T06:13:00.470Z,20.50
2018-12-13T06:15:29.406Z,20.73
2018-12-13T06:17:58.285Z,20.13
2018-12-13T06:20:27.190Z,20.43
2018-12-13T06:22:56.167Z,20.70
2018-12-13T06:25:24.972Z,19.30
2018-12-13T06:27:53.884Z,18.87
2018-12-13T06:30:22.778Z,20.30
2018-12-13T06:32:51.665Z,19.83
2018-12-13T06:35:20.583Z,19.53
2018-12-13T06:37:49.484Z,27.40
2018-12-13T06:40:18.377Z,27.77
2018-12-13T06:42:47.321Z,21.07
2018-12-13T06:45:16.200Z,20.27
2018-12-13T06:47:45.101Z,18.97
2018-12-13T06:50:14.043Z,19.57
2018-12-13T06:52:42.904Z,19.40
2018-12-13T06:55:11.799Z,19.77
2018-12-13T06:57:40.723Z,19.37
2018-12-13T07:00:09.989Z,18.20
2018-12-13T07:02:38.934Z,19.07
2018-12-13T07:05:07.908Z,18.87
2018-12-13T07:07:36.845Z,18.10
2018-12-13T07:10:05.771Z,18.83
2018-12-13T07:12:34.680Z,19.13
2018-12-13T07:15:03.623Z,19.50
2018-12-13T07:17:32.557Z,18.93
2018-12-13T07:20:01.520Z,17.90
2018-12-13T07:22:30.433Z,25.60
2018-12-13T07:24:59.328Z,18.63
2018-12-13T07:27:28.239Z,17.73
2018-12-13T07:29:57.158Z,17.93
2018-12-13T07:32:26.053Z,18.83
2018-12-13T07:35:01.144Z,18.43
2018-12-13T07:37:23.858Z,18.73
2018-12-13T07:39:52.764Z,17.13
2018-12-13T07:42:21.829Z,18.60
2018-12-13T07:44:50.729Z,23.73
2018-12-13T07:47:19.656Z,19.67
2018-12-13T07:49:48.567Z,17.53
2018-12-13T07:52:25.376Z,23.55
2018-12-13T07:54:52.092Z,18.90
2018-12-13T07:57:21.630Z,18.47
2018-12-13T07:59:51.097Z,17.33
2018-12-13T08:02:20.709Z,17.50
2018-12-13T08:04:50.518Z,17.10
2018-12-13T08:07:22.881Z,15.80
2018-12-13T08:09:57.175Z,16.90
2018-12-13T08:12:24.701Z,16.83
2018-12-13T08:14:55.751Z,17.53
2018-12-13T08:17:26.745Z,16.90
2018-12-13T08:19:56.591Z,16.30
2018-12-13T08:22:26.235Z,14.97
2018-12-13T08:25:00.583Z,16.50
2018-12-13T08:27:30.081Z,17.57
2018-12-13T08:30:10.618Z,15.80
2018-12-13T08:32:39.962Z,16.67
2018-12-13T08:35:10.382Z,15.93
2018-12-13T08:37:40.264Z,16.90
2018-12-13T08:40:11.735Z,15.87
2018-12-13T08:42:41.284Z,16.10
2018-12-13T08:45:10.734Z,15.10
2018-12-13T08:47:43.680Z,16.70
2018-12-13T08:50:13.246Z,16.80
2018-12-13T08:52:42.702Z,20.25
2018-12-13T08:55:13.474Z,16.70
2018-12-13T08:57:42.883Z,16.20
2018-12-13T09:00:12.503Z,15.40
2018-12-13T09:02:45.892Z,16.07
2018-12-13T09:05:20.691Z,15.50
2018-12-13T09:07:50.032Z,15.80
2018-12-13T09:10:19.153Z,16.37
2018-12-13T09:12:51.076Z,16.20
2018-12-13T09:15:23.195Z,16.17
2018-12-13T09:17:55.207Z,16.47
2018-12-13T09:20:24.763Z,16.27
2018-12-13T09:22:56.813Z,20.15
2018-12-13T09:25:26.118Z,16.97
2018-12-13T09:27:55.995Z,16.70
2018-12-13T09:30:29.313Z,15.33
2018-12-13T09:32:59.803Z,15.97
2018-12-13T09:35:31.414Z,17.10
2018-12-13T09:38:02.447Z,15.47
2018-12-13T09:40:30.471Z,15.23
2018-12-13T09:43:04.409Z,16.03
2018-12-13T09:45:41.299Z,20.05
2018-12-13T09:48:16.522Z,16.03
2018-12-13T09:50:50.694Z,16.63
2018-12-13T09:53:22.769Z,15.73
2018-12-13T09:55:57.641Z,14.77
2018-12-13T09:58:27.433Z,15.73
2018-12-13T10:01:01.735Z,15.17
2018-12-13T10:03:41.001Z,16.03
2018-12-13T10:06:23.140Z,16.60
2018-12-13T10:08:54.833Z,16.30
2018-12-13T10:11:46.772Z,15.13
2018-12-13T10:14:16.239Z,14.70
2018-12-13T10:16:45.687Z,15.57
2018-12-13T10:19:17.837Z,15.37
2018-12-13T10:21:48.984Z,16.00
2018-12-13T10:24:20.732Z,16.37
2018-12-13T10:26:52.775Z,15.63
2018-12-13T10:29:29.887Z,15.80
2018-12-13T10:31:57.494Z,18.75
2018-12-13T10:34:26.973Z,15.77
2018-12-13T10:36:56.268Z,15.00
2018-12-13T10:39:28.122Z,15.30
2018-12-13T10:42:00.019Z,17.07
2018-12-13T10:44:38.573Z,15.60
2018-12-13T10:47:08.063Z,16.10
2018-12-13T10:49:38.168Z,16.27
2018-12-13T10:52:10.086Z,15.80
2018-12-13T10:54:45.655Z,17.13
2018-12-13T10:57:14.987Z,16.53
2018-12-13T10:59:47.349Z,17.27
2018-12-13T11:02:34.762Z,16.30
2018-12-13T11:05:06.099Z,16.37
2018-12-13T11:07:33.791Z,16.53
2018-12-13T11:10:10.358Z,18.33
2018-12-13T11:12:42.274Z,18.17
2018-12-13T11:15:19.250Z,18.43
2018-12-13T11:17:49.536Z,18.70
2018-12-13T11:20:18.590Z,18.53
2018-12-13T11:22:55.271Z,18.50
2018-12-13T11:25:27.478Z,18.07
2018-12-13T11:28:33.667Z,19.27
2018-12-13T11:31:03.080Z,24.05
2018-12-13T11:33:32.304Z,21.07
2018-12-13T11:36:04.642Z,19.47
2018-12-13T11:38:33.743Z,20.33
2018-12-13T11:41:06.023Z,21.27
2018-12-13T11:43:37.871Z,19.40
2018-12-13T11:46:10.085Z,19.20
2018-12-13T11:48:39.501Z,21.20
2018-12-13T11:51:09.286Z,26.12
2018-12-13T11:53:44.265Z,23.83
2018-12-13T11:56:14.472Z,20.73
2018-12-13T11:58:49.330Z,20.83
2018-12-13T12:01:27.159Z,20.00
2018-12-13T12:03:58.276Z,21.17
2018-12-13T12:06:32.757Z,21.50
2018-12-13T12:09:05.080Z,19.93
2018-12-13T12:11:37.077Z,21.60
2018-12-13T12:14:06.566Z,22.63
2018-12-13T12:16:38.349Z,21.47
2018-12-13T12:19:07.594Z,21.97
2018-12-13T12:21:36.778Z,21.10
2018-12-13T12:24:12.081Z,20.90
2018-12-13T12:26:44.708Z,20.30
2018-12-13T12:29:14.727Z,20.57
2018-12-13T12:31:45.551Z,21.10
2018-12-13T12:34:21.855Z,20.70
2018-12-13T12:36:54.682Z,21.50
2018-12-13T12:39:24.648Z,21.20
2018-12-13T12:41:52.166Z,22.40
2018-12-13T12:44:21.955Z,22.27
2018-12-13T12:46:54.040Z,22.30
2018-12-13T12:49:27.156Z,22.60
2018-12-13T12:52:04.926Z,22.00
2018-12-13T12:54:40.157Z,22.30
2018-12-13T12:57:07.646Z,20.77
2018-12-13T12:59:40.465Z,19.00
2018-12-13T13:02:13.250Z,20.80
2018-12-13T13:04:43.583Z,19.70
2018-12-13T13:07:24.105Z,20.03
2018-12-13T13:09:57.694Z,20.57
2018-12-13T13:12:28.772Z,19.73
2018-12-13T13:14:58.626Z,19.07
2018-12-13T13:17:28.568Z,20.00
2018-12-13T13:19:57.869Z,24.27
2018-12-13T13:22:27.928Z,19.73
2018-12-13T13:25:03.288Z,20.30
2018-12-13T13:27:32.802Z,18.87
2018-12-13T13:30:09.095Z,18.67
2018-12-13T13:32:39.196Z,17.33
2018-12-13T13:35:12.429Z,19.33
2018-12-13T13:37:48.559Z,18.70
2018-12-13T13:40:18.512Z,17.80
2018-12-13T13:42:49.747Z,17.93
2018-12-13T13:45:19.065Z,17.63
2018-12-13T13:47:48.535Z,17.80
2018-12-13T13:50:20.510Z,22.37
2018-12-13T13:52:50.009Z,18.07
2018-12-13T13:55:19.260Z,16.30
2018-12-13T13:57:49.024Z,16.80
2018-12-13T14:00:18.223Z,16.47
2018-12-13T14:02:47.399Z,16.47
2018-12-13T14:05:22.244Z,16.83
2018-12-13T14:07:54.212Z,15.60
2018-12-13T14:10:26.085Z,17.10
2018-12-13T14:12:55.981Z,16.67
2018-12-13T14:15:30.941Z,16.37
2018-12-13T14:18:00.519Z,20.35
2018-12-13T14:20:33.027Z,17.20
2018-12-13T14:23:02.348Z,15.47
2018-12-13T14:25:31.589Z,14.90
2018-12-13T14:28:06.827Z,18.90
2018-12-13T14:30:38.777Z,15.20
2018-12-13T14:33:14.119Z,15.03
2018-12-13T14:35:43.660Z,13.80
2018-12-13T14:38:13.402Z,13.67
2018-12-13T14:40:42.811Z,13.17
2018-12-13T14:43:15.594Z,13.87
2018-12-13T14:45:45.338Z,13.23
2018-12-13T14:48:14.875Z,13.40
2018-12-13T14:50:45.329Z,13.20
2018-12-13T14:53:19.303Z,13.33
2018-12-13T14:55:48.714Z,13.57
2018-12-13T14:58:18.157Z,16.57
2018-12-13T15:00:47.360Z,14.20
2018-12-13T15:03:22.524Z,13.07
2018-12-13T15:05:52.816Z,13.20
2018-12-13T15:08:22.322Z,12.33
2018-12-13T15:10:51.866Z,12.40
2018-12-13T15:13:21.395Z,15.15
2018-12-13T15:15:50.761Z,13.00
2018-12-13T15:18:20.254Z,12.30
2018-12-13T15:20:49.521Z,11.83
2018-12-13T15:23:18.947Z,11.30
2018-12-13T15:25:51.004Z,12.13
2018-12-13T15:28:25.148Z,12.17
2018-12-13T15:31:07.490Z,12.97
2018-12-13T15:33:39.102Z,12.37
2018-12-13T15:36:10.870Z,11.63
2018-12-13T15:38:43.175Z,11.77
2018-12-13T15:41:15.001Z,12.20
2018-12-13T15:43:50.295Z,11.93
2018-12-13T15:46:19.985Z,11.57
2018-12-13T15:48:49.274Z,15.30
2018-12-13T15:51:18.894Z,12.97
2018-12-13T15:53:48.413Z,12.90
2018-12-13T15:56:17.984Z,11.97
2018-12-13T15:58:47.346Z,12.73
2018-12-13T16:01:17.668Z,12.87
2018-12-13T16:03:47.254Z,12.20
2018-12-13T16:06:16.674Z,13.00
2018-12-13T16:08:48.663Z,12.87
2018-12-13T16:11:17.989Z,12.90
2018-12-13T16:13:47.340Z,12.80
2018-12-13T16:16:19.950Z,13.50
2018-12-13T16:18:49.254Z,16.25
2018-12-13T16:21:22.763Z,13.87
2018-12-13T16:23:52.329Z,12.33
2018-12-13T16:26:22.574Z,12.23
2018-12-13T16:28:57.087Z,11.93
2018-12-13T16:31:39.444Z,12.37
2018-12-13T16:34:11.778Z,11.90
2018-12-13T16:36:41.311Z,11.47
2018-12-13T16:39:13.593Z,12.63
2018-12-13T16:41:45.885Z,16.00
2018-12-13T16:44:17.905Z,15.83
2018-12-13T16:46:47.380Z,12.73
2018-12-13T16:49:16.952Z,12.33
2018-12-13T16:51:46.152Z,12.30
2018-12-13T16:54:17.798Z,12.10
2018-12-13T16:56:47.050Z,12.33
2018-12-13T16:59:16.734Z,11.73
2018-12-13T17:01:46.096Z,11.63
2018-12-13T17:04:24.395Z,12.30
2018-12-13T17:06:54.041Z,12.37
2018-12-13T17:09:23.670Z,11.00
2018-12-13T17:11:53.486Z,11.03
2018-12-13T17:14:25.992Z,15.85
2018-12-13T17:16:57.871Z,11.40
2018-12-13T17:19:29.965Z,11.73
2018-12-13T17:22:01.090Z,11.37
2018-12-13T17:24:29.088Z,11.70
2018-12-13T17:26:59.747Z,12.27
2018-12-13T17:29:29.448Z,12.23
2018-12-13T17:32:03.067Z,11.43
2018-12-13T17:34:31.976Z,11.27
2018-12-13T17:37:00.889Z,11.73
2018-12-13T17:39:29.899Z,11.73
2018-12-13T17:41:58.839Z,11.87
2018-12-13T17:44:27.702Z,11.40
2018-12-13T17:46:56.605Z,11.50
2018-12-13T17:49:25.493Z,12.40
2018-12-13T17:51:54.405Z,11.53
2018-12-13T17:54:23.331Z,11.80
2018-12-13T17:56:52.251Z,11.20
2018-12-13T17:59:21.132Z,11.47
2018-12-13T18:01:50.014Z,11.53
2018-12-13T18:04:18.946Z,11.03
2018-12-13T18:06:47.838Z,10.87
2018-12-13T18:09:16.734Z,11.87
2018-12-13T18:11:45.612Z,11.07
2018-12-13T18:14:14.543Z,11.40
2018-12-13T18:16:43.716Z,14.50
2018-12-13T18:19:12.324Z,11.93
2018-12-13T18:21:41.215Z,11.43
2018-12-13T18:24:10.133Z,11.13
2018-12-13T18:26:39.034Z,11.33
2018-12-13T18:29:07.966Z,11.03
2018-12-13T18:31:36.911Z,10.80
2018-12-13T18:34:05.803Z,11.23
2018-12-13T18:36:34.734Z,11.17
2018-12-13T18:39:05.041Z,13.95
2018-12-13T18:41:33.968Z,11.97
2018-12-13T18:44:02.861Z,10.60
2018-12-13T18:46:31.791Z,10.60
2018-12-13T18:49:00.705Z,9.93
2018-12-13T18:51:29.630Z,10.03
2018-12-13T18:53:58.508Z,10.00
2018-12-13T18:56:27.405Z,10.60
2018-12-13T18:58:56.337Z,28.37
2018-12-13T19:01:25.248Z,29.53
2018-12-13T19:03:54.166Z,14.67
2018-12-13T19:06:23.131Z,11.83
2018-12-13T19:08:51.977Z,9.67
2018-12-13T19:11:20.883Z,10.00
2018-12-13T19:13:49.829Z,10.47
2018-12-13T19:16:18.665Z,10.07
2018-12-13T19:18:47.543Z,10.07
2018-12-13T19:21:16.470Z,9.87
2018-12-13T19:23:45.384Z,9.60
2018-12-13T19:26:14.263Z,9.67
2018-12-13T19:28:43.187Z,9.57
2018-12-13T19:31:12.211Z,11.80
2018-12-13T19:33:41.082Z,10.53
2018-12-13T19:36:09.982Z,9.93
2018-12-13T19:38:38.886Z,9.77
2018-12-13T19:41:07.817Z,9.37
2018-12-13T19:43:36.745Z,9.67
2018-12-13T19:46:05.680Z,11.80
2018-12-13T19:48:34.588Z,9.83
2018-12-13T19:51:03.520Z,9.00
2018-12-13T19:53:32.449Z,9.13
2018-12-13T19:56:01.340Z,9.20
2018-12-13T19:58:30.264Z,8.63
2018-12-13T20:00:59.160Z,8.30
2018-12-13T20:03:28.088Z,8.73
2018-12-13T20:05:57.004Z,10.40
2018-12-13T20:08:25.867Z,9.80
2018-12-13T20:10:54.915Z,7.93
2018-12-13T20:13:23.669Z,8.10
2018-12-13T20:15:52.542Z,8.70
2018-12-13T20:18:21.470Z,22.83
2018-12-13T20:20:50.365Z,9.90
2018-12-13T20:23:19.232Z,9.30
2018-12-13T20:25:48.154Z,8.57
2018-12-13T20:28:17.092Z,8.93
2018-12-13T20:30:45.975Z,8.77
2018-12-13T20:33:14.899Z,8.20
2018-12-13T20:35:43.815Z,8.03
2018-12-13T20:38:12.721Z,8.23
2018-12-13T20:40:41.628Z,10.43
2018-12-13T20:43:10.502Z,8.90
2018-12-13T20:45:39.407Z,8.33
2018-12-13T20:48:08.400Z,10.70
2018-12-13T20:50:37.264Z,8.93
2018-12-13T20:53:06.194Z,8.57
2018-12-13T20:55:35.091Z,11.03
2018-12-13T20:58:04.022Z,8.60
2018-12-13T21:00:32.922Z,9.17
2018-12-13T21:03:01.851Z,9.30
2018-12-13T21:05:30.750Z,9.13
2018-12-13T21:08:09.038Z,8.97
2018-12-13T21:10:39.162Z,8.83
2018-12-13T21:13:08.070Z,9.00
2018-12-13T21:15:36.979Z,9.27
2018-12-13T21:18:05.952Z,9.10
2018-12-13T21:20:34.841Z,9.40
2018-12-13T21:23:03.756Z,9.10
2018-12-13T21:25:32.640Z,9.53
2018-12-13T21:28:01.553Z,8.60
2018-12-13T21:30:30.458Z,9.90
2018-12-13T21:33:00.582Z,9.97
2018-12-13T21:35:28.315Z,9.97
2018-12-13T21:37:57.194Z,10.00
2018-12-13T21:40:26.141Z,9.77
2018-12-13T21:42:55.011Z,9.67
2018-12-13T21:45:23.889Z,9.17
2018-12-13T21:47:53.674Z,9.27
2018-12-13T21:50:21.690Z,10.20
2018-12-13T21:52:50.592Z,10.77
2018-12-13T21:57:57.504Z,10.07
2018-12-13T22:00:26.352Z,10.77
2018-12-13T22:02:55.344Z,9.53
2018-12-13T22:05:24.236Z,10.37
2018-12-13T22:07:53.152Z,9.43
2018-12-13T22:10:22.079Z,10.00
2018-12-13T22:12:50.982Z,13.63
2018-12-13T22:15:19.863Z,11.10
2018-12-13T22:17:50.852Z,11.43
2018-12-13T22:20:19.758Z,10.40
2018-12-13T22:22:48.666Z,10.77
2018-12-13T22:25:17.613Z,10.70
2018-12-13T22:27:48.040Z,14.30
2018-12-13T22:30:16.875Z,13.85
2018-12-13T22:32:45.794Z,11.17
2018-12-13T22:35:14.681Z,10.70
2018-12-13T22:37:43.578Z,11.43
2018-12-13T22:40:12.487Z,10.70
2018-12-13T22:42:41.360Z,11.50
2018-12-13T22:45:10.303Z,11.10
2018-12-13T22:47:39.200Z,11.80
2018-12-13T22:50:08.148Z,11.67
2018-12-13T22:52:37.040Z,14.63
2018-12-13T22:55:06.011Z,11.63
2018-12-13T22:57:34.886Z,11.33
2018-12-13T23:00:03.827Z,11.17
2018-12-13T23:02:32.779Z,10.67
2018-12-13T23:05:01.667Z,11.70
2018-12-13T23:07:30.577Z,11.60
2018-12-13T23:09:59.467Z,11.53
2018-12-13T23:12:28.424Z,11.90
2018-12-13T23:14:57.342Z,11.37
2018-12-13T23:17:26.243Z,11.67
2018-12-13T23:19:55.140Z,12.27
2018-12-13T23:22:24.033Z,11.13
2018-12-13T23:24:52.953Z,11.47
2018-12-13T23:27:21.856Z,11.37
2018-12-13T23:29:50.751Z,12.93
2018-12-13T23:32:19.642Z,11.73
2018-12-13T23:34:48.543Z,12.57
2018-12-13T23:37:17.423Z,11.67
2018-12-13T23:39:46.355Z,12.37
2018-12-13T23:42:15.271Z,12.73
2018-12-13T23:44:44.197Z,12.43
2018-12-13T23:47:13.112Z,27.27
2018-12-13T23:49:42.003Z,20.65
2018-12-13T23:52:10.907Z,14.67
2018-12-13T23:54:39.797Z,13.27
2018-12-13T23:57:08.727Z,13.50
2018-12-13T23:59:37.589Z,14.33
